KHON/HON METAR and TAF weather

Enter ICAO airport designator
Station Type Date Time Source
KHON METAR 2018/12/13 06:55 UTC NOAA

KHON 130655Z AUTO 32004KT 4SM -FZRA BR BKN044 OVC070 M02/M03 A2980 RMK AO2 UPB34E50FZRAB50 SLP106 P0001 I1001 T10171028


Station Type Date Time Source
KHON Decoded METAR 2018/12/13 06:55 UTC NOAA

HURON REGIONAL AIRPORT, SD, United States (KHON) 44-23N 098-14W 390M
Dec 13, 2018 - 01:55 AM EST / 2018.12.13 0655 UTC
Wind: from the NW (320 degrees) at 5 MPH (4 KT):0
Visibility: 4 mile(s):0
Sky conditions: overcast
Weather: light freezing rain; mist
Precipitation last hour: 0.01 inches
Temperature: 28.9 F (-1.7 C)
Windchill: 23 F (-5 C):1
Dew Point: 27.0 F (-2.8 C)
Relative Humidity: 92%
Pressure (altimeter): 29.8 in. Hg (1009 hPa)
ob: KHON 130655Z AUTO 32004KT 4SM -FZRA BR BKN044 OVC070 M02/M03 A2980 RMK AO2 UPB34E50FZRAB50 SLP106 P0001 I1001 T10171028
cycle: 7

Station Type Date Time Source
KHON TAF 2018/12/13 08:32 UTC NOAA

TAF
AMD KHON 130731Z 1308/1406 32005KT 3SM -FZRA BR SCT020 BKN040
FM130930 33009KT 6SM BR VCSH BKN040
FM131200 34012KT 6SM -SN SCT010 OVC035
FM132200 VRB04KT P6SM SKC
FM140300 22005KT P6SM SKC


Example: see airport list